sensor_id;sensor_type;location;lat;lon;timestamp;pressure;altitude;pressure_sealevel;temperature;humidity
40315;BME280;26021;45.640;11.302;2022-08-01T00:00:11;98566.25;;;21.66;82.67
40315;BME280;26021;45.640;11.302;2022-08-01T00:02:37;98754.94;;;22.81;82.38
40315;BME280;26021;45.640;11.302;2022-08-01T00:05:03;98757.09;;;23.06;80.82
40315;BME280;26021;45.640;11.302;2022-08-01T00:07:32;98757.22;;;22.94;81.10
40315;BME280;26021;45.640;11.302;2022-08-01T00:09:57;98754.84;;;23.03;80.23
40315;BME280;26021;45.640;11.302;2022-08-01T00:12:23;98753.03;;;22.81;80.84
40315;BME280;26021;45.640;11.302;2022-08-01T00:14:48;98754.41;;;22.84;81.00
40315;BME280;26021;45.640;11.302;2022-08-01T00:17:14;98714.53;;;22.51;82.08
40315;BME280;26021;45.640;11.302;2022-08-01T00:19:39;98752.00;;;22.88;80.94
40315;BME280;26021;45.640;11.302;2022-08-01T00:22:05;98761.81;;;22.89;80.83
40315;BME280;26021;45.640;11.302;2022-08-01T00:24:30;98758.00;;;22.90;79.80
40315;BME280;26021;45.640;11.302;2022-08-01T00:26:56;98750.56;;;22.80;80.27
40315;BME280;26021;45.640;11.302;2022-08-01T00:29:21;98759.41;;;22.92;79.56
40315;BME280;26021;45.640;11.302;2022-08-01T00:31:47;98740.00;;;22.62;80.19
40315;BME280;26021;45.640;11.302;2022-08-01T00:34:12;98760.88;;;22.78;80.14
40315;BME280;26021;45.640;11.302;2022-08-01T00:36:37;98754.66;;;22.82;80.14
40315;BME280;26021;45.640;11.302;2022-08-01T00:39:03;98763.03;;;22.76;80.55
40315;BME280;26021;45.640;11.302;2022-08-01T00:41:28;98702.97;;;22.39;81.25
40315;BME280;26021;45.640;11.302;2022-08-01T00:43:54;98763.22;;;22.91;80.65
40315;BME280;26021;45.640;11.302;2022-08-01T00:46:19;98718.84;;;22.47;81.87
40315;BME280;26021;45.640;11.302;2022-08-01T00:48:45;98757.78;;;22.69;82.15
40315;BME280;26021;45.640;11.302;2022-08-01T00:51:10;98762.44;;;22.96;80.71
40315;BME280;26021;45.640;11.302;2022-08-01T00:53:36;98760.94;;;22.83;82.00
40315;BME280;26021;45.640;11.302;2022-08-01T00:56:02;98765.75;;;22.76;81.77
40315;BME280;26021;45.640;11.302;2022-08-01T00:58:28;98738.44;;;22.71;81.61
40315;BME280;26021;45.640;11.302;2022-08-01T01:00:56;98765.94;;;22.91;81.89
40315;BME280;26021;45.640;11.302;2022-08-01T01:03:23;98752.91;;;22.71;82.65
40315;BME280;26021;45.640;11.302;2022-08-01T01:05:58;98758.81;;;22.63;83.84
40315;BME280;26021;45.640;11.302;2022-08-01T01:08:32;98757.72;;;22.86;82.40
40315;BME280;26021;45.640;11.302;2022-08-01T01:11:05;98767.81;;;22.64;84.86
40315;BME280;26021;45.640;11.302;2022-08-01T01:13:50;98769.63;;;22.53;85.60
40315;BME280;26021;45.640;11.302;2022-08-01T01:16:18;98763.59;;;22.51;84.74
40315;BME280;26021;45.640;11.302;2022-08-01T01:18:51;98724.16;;;22.32;84.07
40315;BME280;26021;45.640;11.302;2022-08-01T01:27:02;98751.47;;;22.64;82.80
40315;BME280;26021;45.640;11.302;2022-08-01T01:29:37;98753.41;;;22.68;82.62
40315;BME280;26021;45.640;11.302;2022-08-01T01:32:12;98755.56;;;22.66;83.46
40315;BME280;26021;45.640;11.302;2022-08-01T01:34:40;98757.69;;;22.59;83.52
40315;BME280;26021;45.640;11.302;2022-08-01T01:37:11;98751.94;;;22.82;82.44
40315;BME280;26021;45.640;11.302;2022-08-01T01:39:38;98682.88;;;22.23;82.45
40315;BME280;26021;45.640;11.302;2022-08-01T01:42:06;98752.28;;;22.64;83.70
40315;BME280;26021;45.640;11.302;2022-08-01T01:44:31;98739.53;;;22.70;83.02
40315;BME280;26021;45.640;11.302;2022-08-01T01:46:59;98748.31;;;22.50;83.92
40315;BME280;26021;45.640;11.302;2022-08-01T01:49:26;98751.25;;;22.43;84.96
40315;BME280;26021;45.640;11.302;2022-08-01T01:51:54;98744.47;;;22.46;84.95
40315;BME280;26021;45.640;11.302;2022-08-01T01:54:22;98733.19;;;22.37;86.06
40315;BME280;26021;45.640;11.302;2022-08-01T01:56:50;98744.63;;;22.34;87.48
40315;BME280;26021;45.640;11.302;2022-08-01T01:59:27;98738.41;;;22.39;87.96
40315;BME280;26021;45.640;11.302;2022-08-01T02:01:55;98738.03;;;22.30;88.97
40315;BME280;26021;45.640;11.302;2022-08-01T02:04:23;98746.78;;;22.32;90.87
40315;BME280;26021;45.640;11.302;2022-08-01T02:06:50;98748.09;;;22.30;89.36
40315;BME280;26021;45.640;11.302;2022-08-01T02:09:18;98726.03;;;22.09;87.16
40315;BME280;26021;45.640;11.302;2022-08-01T02:11:46;98736.28;;;22.24;87.85
40315;BME280;26021;45.640;11.302;2022-08-01T02:14:13;98735.06;;;22.32;86.84
40315;BME280;26021;45.640;11.302;2022-08-01T02:16:42;98734.66;;;22.23;89.64
40315;BME280;26021;45.640;11.302;2022-08-01T02:19:09;98695.50;;;21.85;93.16
40315;BME280;26021;45.640;11.302;2022-08-01T02:21:49;98727.03;;;22.25;91.50
40315;BME280;26021;45.640;11.302;2022-08-01T02:27:15;98730.22;;;22.39;90.75
40315;BME280;26021;45.640;11.302;2022-08-01T02:29:47;98733.97;;;22.33;90.99
40315;BME280;26021;45.640;11.302;2022-08-01T02:32:41;98738.59;;;22.10;91.78
40315;BME280;26021;45.640;11.302;2022-08-01T02:35:07;98739.66;;;22.09;91.33
40315;BME280;26021;45.640;11.302;2022-08-01T02:37:38;98692.06;;;21.95;90.86
40315;BME280;26021;45.640;11.302;2022-08-01T02:40:04;98735.06;;;22.32;93.50
40315;BME280;26021;45.640;11.302;2022-08-01T02:42:31;98739.78;;;22.19;95.18
40315;BME280;26021;45.640;11.302;2022-08-01T02:44:57;98730.72;;;22.14;96.85
40315;BME280;26021;45.640;11.302;2022-08-01T02:47:25;98702.78;;;21.80;98.02
40315;BME280;26021;45.640;11.302;2022-08-01T02:49:54;98739.50;;;21.99;99.08
40315;BME280;26021;45.640;11.302;2022-08-01T02:52:22;98742.41;;;21.93;100.00
40315;BME280;26021;45.640;11.302;2022-08-01T02:54:50;98738.00;;;22.08;100.00
40315;BME280;26021;45.640;11.302;2022-08-01T02:57:17;98726.31;;;22.08;100.00
40315;BME280;26021;45.640;11.302;2022-08-01T02:59:44;98730.19;;;21.95;100.00
40315;BME280;26021;45.640;11.302;2022-08-01T03:02:11;98705.50;;;22.02;100.00
40315;BME280;26021;45.640;11.302;2022-08-01T03:04:39;98737.44;;;22.06;100.00
40315;BME280;26021;45.640;11.302;2022-08-01T03:07:07;98736.28;;;22.02;100.00
40315;BME280;26021;45.640;11.302;2022-08-01T03:09:37;98731.84;;;21.96;98.28
40315;BME280;26021;45.640;11.302;2022-08-01T03:12:07;98722.03;;;21.95;93.29
40315;BME280;26021;45.640;11.302;2022-08-01T03:14:36;98730.06;;;21.85;100.00
40315;BME280;26021;45.640;11.302;2022-08-01T03:17:04;98735.50;;;21.85;100.00
40315;BME280;26021;45.640;11.302;2022-08-01T03:19:33;98734.56;;;21.96;100.00
40315;BME280;26021;45.640;11.302;2022-08-01T03:21:59;98739.94;;;21.91;100.00
40315;BME280;26021;45.640;11.302;2022-08-01T03:24:28;98717.59;;;21.67;100.00
40315;BME280;26021;45.640;11.302;2022-08-01T03:26:56;98728.97;;;22.03;100.00
40315;BME280;26021;45.640;11.302;2022-08-01T03:29:24;98731.94;;;21.63;100.00
40315;BME280;26021;45.640;11.302;2022-08-01T03:31:51;98691.63;;;21.60;100.00
40315;BME280;26021;45.640;11.302;2022-08-01T03:34:18;98737.53;;;21.73;100.00
40315;BME280;26021;45.640;11.302;2022-08-01T03:39:30;98734.44;;;21.64;100.00
40315;BME280;26021;45.640;11.302;2022-08-01T03:42:00;98737.47;;;21.68;100.00
40315;BME280;26021;45.640;11.302;2022-08-01T03:44:27;98731.00;;;21.74;100.00
40315;BME280;26021;45.640;11.302;2022-08-01T03:47:00;98733.81;;;21.79;100.00
40315;BME280;26021;45.640;11.302;2022-08-01T03:49:30;98709.44;;;21.67;99.52
40315;BME280;26021;45.640;11.302;2022-08-01T03:51:56;98730.31;;;21.83;100.00
40315;BME280;26021;45.640;11.302;2022-08-01T03:54:24;98724.50;;;21.75;100.00
40315;BME280;26021;45.640;11.302;2022-08-01T03:56:51;98730.44;;;21.72;100.00
40315;BME280;26021;45.640;11.302;2022-08-01T03:59:18;98676.91;;;21.39;97.28
40315;BME280;26021;45.640;11.302;2022-08-01T04:01:45;98716.28;;;21.53;97.16
40315;BME280;26021;45.640;11.302;2022-08-01T04:04:12;98730.38;;;21.50;97.37
40315;BME280;26021;45.640;11.302;2022-08-01T04:06:38;98722.97;;;21.45;97.81
40315;BME280;26021;45.640;11.302;2022-08-01T04:09:04;98725.94;;;21.44;98.59
40315;BME280;26021;45.640;11.302;2022-08-01T04:11:29;98726.94;;;21.38;100.00
40315;BME280;26021;45.640;11.302;2022-08-01T04:13:55;98669.00;;;21.20;96.54
40315;BME280;26021;45.640;11.302;2022-08-01T04:16:21;98737.31;;;21.41;97.88
40315;BME280;26021;45.640;11.302;2022-08-01T04:18:47;98673.22;;;21.11;97.55
40315;BME280;26021;45.640;11.302;2022-08-01T04:21:13;98686.72;;;21.06;98.43
40315;BME280;26021;45.640;11.302;2022-08-01T04:23:41;98731.66;;;21.25;99.31
40315;BME280;26021;45.640;11.302;2022-08-01T04:26:09;98708.31;;;21.13;99.12
40315;BME280;26021;45.640;11.302;2022-08-01T04:28:36;98732.06;;;21.34;98.07
40315;BME280;26021;45.640;11.302;2022-08-01T04:31:06;98736.91;;;21.15;100.00
40315;BME280;26021;45.640;11.302;2022-08-01T04:33:35;98733.44;;;21.20;98.91
40315;BME280;26021;45.640;11.302;2022-08-01T04:36:03;98733.69;;;21.18;99.14
40315;BME280;26021;45.640;11.302;2022-08-01T04:38:30;98741.72;;;21.25;99.10
40315;BME280;26021;45.640;11.302;2022-08-01T04:40:57;98731.97;;;21.29;98.04
40315;BME280;26021;45.640;11.302;2022-08-01T04:43:22;98748.47;;;21.56;96.76
40315;BME280;26021;45.640;11.302;2022-08-01T04:45:49;98714.00;;;21.45;95.45
40315;BME280;26021;45.640;11.302;2022-08-01T04:48:17;98745.69;;;21.73;94.25
40315;BME280;26021;45.640;11.302;2022-08-01T04:50:45;98750.81;;;21.69;95.51
40315;BME280;26021;45.640;11.302;2022-08-01T04:53:15;98753.28;;;21.71;95.66
40315;BME280;26021;45.640;11.302;2022-08-01T04:55:42;98752.94;;;21.84;96.66
40315;BME280;26021;45.640;11.302;2022-08-01T04:58:09;98751.44;;;22.15;96.14
40315;BME280;26021;45.640;11.302;2022-08-01T05:00:35;98738.78;;;22.04;98.69
40315;BME280;26021;45.640;11.302;2022-08-01T05:03:01;98755.34;;;22.02;100.00
40315;BME280;26021;45.640;11.302;2022-08-01T05:05:26;98746.75;;;22.10;100.00
40315;BME280;26021;45.640;11.302;2022-08-01T05:07:51;98586.47;;;20.93;100.00
40315;BME280;26021;45.640;11.302;2022-08-01T05:10:17;98691.72;;;21.48;100.00
40315;BME280;26021;45.640;11.302;2022-08-01T05:12:42;98743.38;;;21.81;100.00
40315;BME280;26021;45.640;11.302;2022-08-01T05:15:09;98742.75;;;21.96;100.00
40315;BME280;26021;45.640;11.302;2022-08-01T05:17:34;98737.28;;;21.96;100.00
40315;BME280;26021;45.640;11.302;2022-08-01T05:20:00;98739.53;;;22.21;100.00
40315;BME280;26021;45.640;11.302;2022-08-01T05:22:25;98735.47;;;22.45;99.08
40315;BME280;26021;45.640;11.302;2022-08-01T05:24:51;98739.78;;;22.41;98.66
40315;BME280;26021;45.640;11.302;2022-08-01T05:27:18;98742.41;;;22.58;97.15
40315;BME280;26021;45.640;11.302;2022-08-01T05:29:43;98741.78;;;22.51;97.57
40315;BME280;26021;45.640;11.302;2022-08-01T05:32:09;98737.56;;;22.38;92.84
40315;BME280;26021;45.640;11.302;2022-08-01T05:34:35;98688.28;;;22.18;92.82
40315;BME280;26021;45.640;11.302;2022-08-01T05:37:00;98737.53;;;22.60;90.52
40315;BME280;26021;45.640;11.302;2022-08-01T05:39:26;98722.81;;;22.61;89.90
40315;BME280;26021;45.640;11.302;2022-08-01T05:41:51;98747.97;;;22.41;90.36
40315;BME280;26021;45.640;11.302;2022-08-01T05:44:16;98738.72;;;22.20;92.73
40315;BME280;26021;45.640;11.302;2022-08-01T05:46:42;98732.13;;;22.38;92.68
40315;BME280;26021;45.640;11.302;2022-08-01T05:49:08;98653.34;;;22.10;90.63
40315;BME280;26021;45.640;11.302;2022-08-01T05:51:33;98693.56;;;22.51;90.51
40315;BME280;26021;45.640;11.302;2022-08-01T05:53:59;98626.19;;;22.20;89.35
40315;BME280;26021;45.640;11.302;2022-08-01T05:56:24;98739.09;;;23.05;87.66
40315;BME280;26021;45.640;11.302;2022-08-01T05:58:51;98714.72;;;22.98;87.38
40315;BME280;26021;45.640;11.302;2022-08-01T06:01:18;98717.72;;;23.29;86.19
40315;BME280;26021;45.640;11.302;2022-08-01T06:03:43;98708.25;;;23.46;84.82
40315;BME280;26021;45.640;11.302;2022-08-01T06:06:09;98738.88;;;23.96;83.17
40315;BME280;26021;45.640;11.302;2022-08-01T06:08:34;98679.88;;;23.90;82.51
40315;BME280;26021;45.640;11.302;2022-08-01T06:11:00;98713.63;;;24.31;78.95
40315;BME280;26021;45.640;11.302;2022-08-01T06:13:26;98727.94;;;24.68;78.14
40315;BME280;26021;45.640;11.302;2022-08-01T06:15:52;98721.94;;;24.92;76.59
40315;BME280;26021;45.640;11.302;2022-08-01T06:18:17;98729.34;;;24.96;75.99
40315;BME280;26021;45.640;11.302;2022-08-01T06:20:43;98718.44;;;25.27;75.50
40315;BME280;26021;45.640;11.302;2022-08-01T06:23:09;98723.91;;;25.37;73.05
40315;BME280;26021;45.640;11.302;2022-08-01T06:25:35;98720.84;;;25.74;73.42
40315;BME280;26021;45.640;11.302;2022-08-01T06:28:01;98722.50;;;25.70;71.23
40315;BME280;26021;45.640;11.302;2022-08-01T06:30:26;98668.31;;;25.47;71.34
40315;BME280;26021;45.640;11.302;2022-08-01T06:32:52;98696.34;;;26.08;69.81
40315;BME280;26021;45.640;11.302;2022-08-01T06:35:18;98718.41;;;26.37;69.57
40315;BME280;26021;45.640;11.302;2022-08-01T06:37:43;98713.28;;;26.70;69.67
40315;BME280;26021;45.640;11.302;2022-08-01T06:40:11;98719.56;;;26.70;70.08
40315;BME280;26021;45.640;11.302;2022-08-01T06:42:37;98712.81;;;26.57;69.75
40315;BME280;26021;45.640;11.302;2022-08-01T06:45:07;98692.91;;;26.81;68.08
40315;BME280;26021;45.640;11.302;2022-08-01T06:47:33;98669.81;;;26.87;66.84
40315;BME280;26021;45.640;11.302;2022-08-01T06:49:59;98721.19;;;27.15;66.70
40315;BME280;26021;45.640;11.302;2022-08-01T06:52:25;98719.84;;;27.42;66.37
40315;BME280;26021;45.640;11.302;2022-08-01T06:54:51;98720.06;;;27.50;65.08
40315;BME280;26021;45.640;11.302;2022-08-01T06:57:16;98686.41;;;27.35;64.31
40315;BME280;26021;45.640;11.302;2022-08-01T06:59:42;98705.53;;;27.50;65.50
40315;BME280;26021;45.640;11.302;2022-08-01T07:02:07;98721.44;;;27.48;62.25
40315;BME280;26021;45.640;11.302;2022-08-01T07:04:34;98668.88;;;27.31;61.09
40315;BME280;26021;45.640;11.302;2022-08-01T07:06:59;98711.00;;;27.79;61.92
40315;BME280;26021;45.640;11.302;2022-08-01T07:09:26;98663.34;;;27.89;61.66
40315;BME280;26021;45.640;11.302;2022-08-01T07:11:51;98716.94;;;28.10;58.45
40315;BME280;26021;45.640;11.302;2022-08-01T07:14:18;98705.84;;;27.96;58.25
40315;BME280;26021;45.640;11.302;2022-08-01T07:16:44;98721.19;;;28.26;58.70
40315;BME280;26021;45.640;11.302;2022-08-01T07:19:10;98719.81;;;28.00;58.31
40315;BME280;26021;45.640;11.302;2022-08-01T07:21:36;98714.31;;;28.24;58.44
40315;BME280;26021;45.640;11.302;2022-08-01T07:24:01;98675.09;;;28.37;59.45
40315;BME280;26021;45.640;11.302;2022-08-01T07:26:27;98712.25;;;28.72;62.49
40315;BME280;26021;45.640;11.302;2022-08-01T07:28:53;98684.16;;;28.75;60.80
40315;BME280;26021;45.640;11.302;2022-08-01T07:31:19;98699.25;;;28.96;61.39
40315;BME280;26021;45.640;11.302;2022-08-01T07:33:45;98596.97;;;28.38;61.23
40315;BME280;26021;45.640;11.302;2022-08-01T07:36:11;98691.59;;;28.93;62.21
40315;BME280;26021;45.640;11.302;2022-08-01T07:38:36;98638.69;;;28.77;62.47
40315;BME280;26021;45.640;11.302;2022-08-01T07:41:02;98657.66;;;28.79;62.55
40315;BME280;26021;45.640;11.302;2022-08-01T07:43:28;98645.38;;;28.90;62.59
40315;BME280;26021;45.640;11.302;2022-08-01T07:45:54;98683.94;;;29.23;61.64
40315;BME280;26021;45.640;11.302;2022-08-01T07:48:19;98698.03;;;29.35;61.43
40315;BME280;26021;45.640;11.302;2022-08-01T07:50:52;98691.31;;;29.41;62.77
40315;BME280;26021;45.640;11.302;2022-08-01T07:53:17;98651.81;;;29.18;62.43
40315;BME280;26021;45.640;11.302;2022-08-01T07:55:42;98688.81;;;29.45;61.25
40315;BME280;26021;45.640;11.302;2022-08-01T07:58:08;98692.69;;;29.44;60.83
40315;BME280;26021;45.640;11.302;2022-08-01T08:00:34;98686.06;;;29.12;61.23
40315;BME280;26021;45.640;11.302;2022-08-01T08:02:59;98682.53;;;29.25;62.10
40315;BME280;26021;45.640;11.302;2022-08-01T08:05:27;98688.25;;;29.29;61.10
40315;BME280;26021;45.640;11.302;2022-08-01T08:07:53;98677.47;;;29.46;60.12
40315;BME280;26021;45.640;11.302;2022-08-01T08:10:18;98689.63;;;29.72;59.51
40315;BME280;26021;45.640;11.302;2022-08-01T08:12:44;98637.38;;;29.54;59.45
40315;BME280;26021;45.640;11.302;2022-08-01T08:15:11;98676.97;;;29.71;58.48
40315;BME280;26021;45.640;11.302;2022-08-01T08:17:37;98686.38;;;29.70;56.65
40315;BME280;26021;45.640;11.302;2022-08-01T08:20:04;98685.75;;;29.46;58.99
40315;BME280;26021;45.640;11.302;2022-08-01T08:22:30;98672.44;;;29.34;58.63
40315;BME280;26021;45.640;11.302;2022-08-01T08:24:55;98696.78;;;29.46;58.53
40315;BME280;26021;45.640;11.302;2022-08-01T08:27:21;98687.41;;;29.61;58.35
40315;BME280;26021;45.640;11.302;2022-08-01T08:29:46;98689.13;;;29.70;57.29
40315;BME280;26021;45.640;11.302;2022-08-01T08:32:12;98681.56;;;29.49;58.18
40315;BME280;26021;45.640;11.302;2022-08-01T08:34:37;98687.63;;;29.78;57.06
40315;BME280;26021;45.640;11.302;2022-08-01T08:37:03;98669.44;;;29.50;57.44
40315;BME280;26021;45.640;11.302;2022-08-01T08:39:28;98689.25;;;29.93;57.73
40315;BME280;26021;45.640;11.302;2022-08-01T08:41:58;98689.66;;;30.14;56.46
40315;BME280;26021;45.640;11.302;2022-08-01T08:44:24;98689.25;;;29.93;56.37
40315;BME280;26021;45.640;11.302;2022-08-01T08:46:51;98685.69;;;30.20;56.83
40315;BME280;26021;45.640;11.302;2022-08-01T08:49:19;98688.28;;;30.39;55.52
40315;BME280;26021;45.640;11.302;2022-08-01T08:51:48;98680.81;;;30.53;56.11
40315;BME280;26021;45.640;11.302;2022-08-01T08:54:15;98685.63;;;30.47;53.79
40315;BME280;26021;45.640;11.302;2022-08-01T08:56:42;98683.31;;;29.99;56.59
40315;BME280;26021;45.640;11.302;2022-08-01T08:59:08;98668.63;;;30.18;55.47
40315;BME280;26021;45.640;11.302;2022-08-01T09:01:33;98671.34;;;30.31;54.38
40315;BME280;26021;45.640;11.302;2022-08-01T09:04:03;98679.69;;;30.40;56.03
40315;BME280;26021;45.640;11.302;2022-08-01T09:06:30;98667.25;;;30.29;54.52
40315;BME280;26021;45.640;11.302;2022-08-01T09:08:57;98677.56;;;30.37;56.97
40315;BME280;26021;45.640;11.302;2022-08-01T09:11:22;98679.19;;;30.52;54.69
40315;BME280;26021;45.640;11.302;2022-08-01T09:14:12;98682.06;;;30.33;53.78
40315;BME280;26021;45.640;11.302;2022-08-01T09:16:41;98681.78;;;30.21;54.36
40315;BME280;26021;45.640;11.302;2022-08-01T09:19:18;98559.53;;;29.48;53.89
40315;BME280;26021;45.640;11.302;2022-08-01T09:21:57;98677.69;;;30.32;53.62
40315;BME280;26021;45.640;11.302;2022-08-01T09:24:25;98650.88;;;30.10;53.79
40315;BME280;26021;45.640;11.302;2022-08-01T09:26:52;98679.63;;;30.31;53.40
40315;BME280;26021;45.640;11.302;2022-08-01T09:29:21;98677.69;;;30.32;54.42
40315;BME280;26021;45.640;11.302;2022-08-01T09:31:47;98654.69;;;30.36;53.44
40315;BME280;26021;45.640;11.302;2022-08-01T09:34:13;98678.75;;;30.58;52.12
40315;BME280;26021;45.640;11.302;2022-08-01T09:39:14;98680.50;;;30.54;52.72
40315;BME280;26021;45.640;11.302;2022-08-01T09:41:40;98668.09;;;30.29;53.06
40315;BME280;26021;45.640;11.302;2022-08-01T09:44:05;98620.56;;;30.32;52.86
40315;BME280;26021;45.640;11.302;2022-08-01T09:46:32;98611.19;;;30.56;52.11
40315;BME280;26021;45.640;11.302;2022-08-01T09:49:02;98665.28;;;31.02;51.44
40315;BME280;26021;45.640;11.302;2022-08-01T09:51:36;98669.75;;;31.11;49.71
40315;BME280;26021;45.640;11.302;2022-08-01T09:54:04;98651.56;;;30.88;49.73
40315;BME280;26021;45.640;11.302;2022-08-01T09:56:40;98653.97;;;31.12;51.08
40315;BME280;26021;45.640;11.302;2022-08-01T09:59:07;98653.63;;;31.05;50.56
40315;BME280;26021;45.640;11.302;2022-08-01T10:01:49;98655.06;;;31.02;50.15
40315;BME280;26021;45.640;11.302;2022-08-01T10:04:20;98660.41;;;31.21;49.50
40315;BME280;26021;45.640;11.302;2022-08-01T10:06:48;98643.44;;;31.36;50.07
40315;BME280;26021;45.640;11.302;2022-08-01T10:09:29;98648.31;;;31.39;50.21
40315;BME280;26021;45.640;11.302;2022-08-01T10:11:55;98647.03;;;31.37;48.53
40315;BME280;26021;45.640;11.302;2022-08-01T10:14:26;98643.25;;;31.33;48.16
40315;BME280;26021;45.640;11.302;2022-08-01T10:16:57;98650.53;;;31.59;47.42
40315;BME280;26021;45.640;11.302;2022-08-01T10:19:25;98643.84;;;31.52;47.25
40315;BME280;26021;45.640;11.302;2022-08-01T10:21:52;98604.97;;;31.48;47.30
40315;BME280;26021;45.640;11.302;2022-08-01T10:24:19;98641.28;;;31.64;45.71
40315;BME280;26021;45.640;11.302;2022-08-01T10:26:48;98644.88;;;31.34;46.41
40315;BME280;26021;45.640;11.302;2022-08-01T10:29:18;98638.97;;;31.57;47.16
40315;BME280;26021;45.640;11.302;2022-08-01T10:31:46;98635.44;;;31.66;46.13
40315;BME280;26021;45.640;11.302;2022-08-01T10:34:12;98633.72;;;31.16;45.68
40315;BME280;26021;45.640;11.302;2022-08-01T10:36:42;98586.44;;;31.18;46.00
40315;BME280;26021;45.640;11.302;2022-08-01T10:39:10;98631.09;;;31.82;44.53
40315;BME280;26021;45.640;11.302;2022-08-01T10:41:38;98576.59;;;31.25;44.67
40315;BME280;26021;45.640;11.302;2022-08-01T10:44:04;98627.78;;;31.63;43.74
40315;BME280;26021;45.640;11.302;2022-08-01T10:46:31;98598.56;;;31.79;44.02
40315;BME280;26021;45.640;11.302;2022-08-01T10:49:06;98629.56;;;32.07;42.98
40315;BME280;26021;45.640;11.302;2022-08-01T10:51:35;98612.31;;;32.01;41.44
40315;BME280;26021;45.640;11.302;2022-08-01T10:54:05;98613.72;;;31.90;41.33
40315;BME280;26021;45.640;11.302;2022-08-01T10:56:49;98613.59;;;32.04;41.14
40315;BME280;26021;45.640;11.302;2022-08-01T10:59:26;98606.28;;;32.16;41.05
40315;BME280;26021;45.640;11.302;2022-08-01T11:02:00;98605.19;;;32.35;40.31
40315;BME280;26021;45.640;11.302;2022-08-01T11:07:23;98610.69;;;32.00;40.33
40315;BME280;26021;45.640;11.302;2022-08-01T11:10:03;98595.22;;;32.08;40.95
40315;BME280;26021;45.640;11.302;2022-08-01T11:12:39;98592.66;;;32.29;40.75
40315;BME280;26021;45.640;11.302;2022-08-01T11:17:36;98578.25;;;31.92;40.24
40315;BME280;26021;45.640;11.302;2022-08-01T11:20:13;98567.69;;;31.94;41.11
40315;BME280;26021;45.640;11.302;2022-08-01T11:30:40;98574.75;;;32.35;40.04
40315;BME280;26021;45.640;11.302;2022-08-01T11:33:06;98570.69;;;32.32;40.01
40315;BME280;26021;45.640;11.302;2022-08-01T11:35:32;98562.06;;;32.25;41.00
40315;BME280;26021;45.640;11.302;2022-08-01T11:38:23;98557.78;;;32.19;40.43
40315;BME280;26021;45.640;11.302;2022-08-01T11:44:01;98515.16;;;32.37;39.34
40315;BME280;26021;45.640;11.302;2022-08-01T11:52:08;98547.00;;;32.69;38.35
40315;BME280;26021;45.640;11.302;2022-08-01T11:54:40;98544.25;;;32.87;38.38
40315;BME280;26021;45.640;11.302;2022-08-01T11:57:11;98536.91;;;32.91;37.33
40315;BME280;26021;45.640;11.302;2022-08-01T11:59:43;98541.63;;;32.90;37.99
40315;BME280;26021;45.640;11.302;2022-08-01T12:02:33;98535.69;;;33.09;34.61
40315;BME280;26021;45.640;11.302;2022-08-01T12:05:11;98529.75;;;32.90;34.65
40315;BME280;26021;45.640;11.302;2022-08-01T12:07:42;98524.91;;;33.16;34.45
40315;BME280;26021;45.640;11.302;2022-08-01T12:10:18;98524.72;;;32.83;33.55
40315;BME280;26021;45.640;11.302;2022-08-01T12:15:18;98510.25;;;33.15;33.83
40315;BME280;26021;45.640;11.302;2022-08-01T12:17:49;98471.00;;;33.05;33.57
40315;BME280;26021;45.640;11.302;2022-08-01T12:20:19;98481.47;;;33.29;32.44
40315;BME280;26021;45.640;11.302;2022-08-01T12:22:45;98510.53;;;33.61;31.83
40315;BME280;26021;45.640;11.302;2022-08-01T12:25:16;98501.41;;;33.22;33.50
40315;BME280;26021;45.640;11.302;2022-08-01T12:27:45;98503.88;;;33.53;33.29
40315;BME280;26021;45.640;11.302;2022-08-01T12:30:14;98485.72;;;33.64;32.15
40315;BME280;26021;45.640;11.302;2022-08-01T12:32:41;98491.28;;;33.85;32.49
40315;BME280;26021;45.640;11.302;2022-08-01T12:35:09;98489.09;;;34.11;31.11
40315;BME280;26021;45.640;11.302;2022-08-01T12:37:43;98494.50;;;34.08;31.52
40315;BME280;26021;45.640;11.302;2022-08-01T12:40:15;98496.59;;;33.48;31.82
40315;BME280;26021;45.640;11.302;2022-08-01T12:42:43;98497.16;;;33.25;31.97
40315;BME280;26021;45.640;11.302;2022-08-01T12:45:10;98499.25;;;33.36;32.28
40315;BME280;26021;45.640;11.302;2022-08-01T12:47:37;98497.44;;;33.02;31.82
40315;BME280;26021;45.640;11.302;2022-08-01T12:50:06;98458.84;;;32.97;32.44
40315;BME280;26021;45.640;11.302;2022-08-01T12:52:33;98491.38;;;33.47;32.87
40315;BME280;26021;45.640;11.302;2022-08-01T12:57:39;98486.88;;;34.05;31.13
40315;BME280;26021;45.640;11.302;2022-08-01T13:02:35;98445.25;;;34.05;30.64
40315;BME280;26021;45.640;11.302;2022-08-01T13:05:03;98482.53;;;34.37;31.20
40315;BME280;26021;45.640;11.302;2022-08-01T13:07:36;98487.47;;;34.31;30.65
40315;BME280;26021;45.640;11.302;2022-08-01T13:10:03;98483.22;;;33.92;31.29
40315;BME280;26021;45.640;11.302;2022-08-01T13:12:29;98478.03;;;33.91;30.97
40315;BME280;26021;45.640;11.302;2022-08-01T13:14:54;98467.00;;;33.82;31.04
40315;BME280;26021;45.640;11.302;2022-08-01T13:17:40;98474.19;;;33.54;31.25
40315;BME280;26021;45.640;11.302;2022-08-01T13:20:06;98470.97;;;33.43;32.90
40315;BME280;26021;45.640;11.302;2022-08-01T13:22:36;98464.81;;;33.46;32.43
40315;BME280;26021;45.640;11.302;2022-08-01T13:25:15;98460.88;;;33.47;31.91
40315;BME280;26021;45.640;11.302;2022-08-01T13:27:41;98465.59;;;33.46;32.84
40315;BME280;26021;45.640;11.302;2022-08-01T13:30:14;98462.63;;;33.52;32.28
40315;BME280;26021;45.640;11.302;2022-08-01T13:32:40;98446.06;;;33.64;32.62
40315;BME280;26021;45.640;11.302;2022-08-01T13:35:08;98459.31;;;33.79;31.67